createdAt,value
2023-01-22T00:00:03.412Z,7.85
2023-01-22T00:05:15.884Z,7.07
2023-01-22T00:10:20.841Z,7.32
2023-01-22T00:15:24.388Z,7.70
2023-01-22T00:20:27.718Z,7.82
2023-01-22T00:25:32.704Z,8.20
2023-01-22T00:30:36.139Z,8.90
2023-01-22T00:35:39.835Z,9.27
2023-01-22T00:40:45.081Z,8.67
2023-01-22T00:45:48.542Z,11.85
2023-01-22T00:50:51.955Z,9.27
2023-01-22T00:55:58.688Z,8.70
2023-01-22T01:01:03.138Z,8.80
2023-01-22T01:06:09.792Z,9.45
2023-01-22T01:11:17.035Z,10.90
2023-01-22T01:16:23.723Z,10.85
2023-01-22T01:21:27.325Z,7.53
2023-01-22T01:26:33.575Z,7.57
2023-01-22T01:31:39.632Z,7.32
2023-01-22T01:36:49.583Z,7.53
2023-01-22T01:41:54.931Z,8.10
2023-01-22T01:47:02.167Z,7.82
2023-01-22T01:52:10.594Z,7.75
2023-01-22T01:57:19.446Z,8.45
2023-01-22T02:02:23.632Z,8.43
2023-01-22T02:07:27.058Z,8.27
2023-01-22T02:12:31.904Z,8.32
2023-01-22T02:17:35.304Z,8.40
2023-01-22T02:22:40.965Z,8.15
2023-01-22T02:27:44.502Z,7.90
2023-01-22T02:32:48.129Z,7.90
2023-01-22T02:37:53.007Z,7.80
2023-01-22T02:42:58.217Z,7.32
2023-01-22T02:48:02.229Z,7.40
2023-01-22T02:53:11.274Z,7.30
2023-01-22T02:58:14.772Z,7.00
2023-01-22T03:03:18.349Z,7.03
2023-01-22T03:08:26.711Z,6.88
2023-01-22T03:13:48.161Z,7.00
2023-01-22T03:19:08.960Z,6.95
2023-01-22T03:24:13.848Z,6.80
2023-01-22T03:29:17.787Z,7.07
2023-01-22T03:34:25.985Z,7.00
2023-01-22T03:39:34.328Z,7.10
2023-01-22T03:44:39.428Z,7.07
2023-01-22T03:49:43.032Z,6.95
2023-01-22T03:54:48.359Z,7.28
2023-01-22T03:59:51.931Z,6.93
2023-01-22T04:04:55.721Z,7.30
2023-01-22T04:10:01.540Z,7.32
2023-01-22T04:15:09.001Z,7.72
2023-01-22T04:20:13.208Z,7.20
2023-01-22T04:25:25.457Z,7.40
2023-01-22T04:30:29.684Z,7.38
2023-01-22T04:35:44.255Z,7.32
2023-01-22T04:40:49.967Z,7.17
2023-01-22T04:45:53.490Z,7.55
2023-01-22T04:51:02.870Z,7.00
2023-01-22T04:56:09.901Z,7.47
2023-01-22T05:01:14.112Z,7.40
2023-01-22T05:06:17.610Z,8.60
2023-01-22T05:11:22.399Z,8.07
2023-01-22T05:16:34.280Z,7.88
2023-01-22T05:21:37.686Z,6.82
2023-01-22T05:26:43.838Z,7.97
2023-01-22T05:31:51.486Z,7.60
2023-01-22T05:37:10.117Z,9.15
2023-01-22T05:42:18.208Z,8.13
2023-01-22T05:47:24.685Z,8.65
2023-01-22T05:52:46.312Z,8.35
2023-01-22T05:57:51.767Z,8.45
2023-01-22T06:02:58.018Z,7.93
2023-01-22T06:08:01.790Z,8.77
2023-01-22T06:13:14.339Z,8.83
2023-01-22T06:18:20.874Z,8.05
2023-01-22T06:23:26.068Z,6.93
2023-01-22T06:28:31.565Z,8.40
2023-01-22T06:33:36.631Z,8.95
2023-01-22T06:38:40.822Z,8.77
2023-01-22T06:43:48.066Z,10.23
2023-01-22T06:48:51.531Z,8.95
2023-01-22T06:53:54.910Z,9.20
2023-01-22T06:59:00.186Z,8.27
2023-01-22T07:04:03.647Z,7.70
2023-01-22T07:09:07.172Z,9.10
2023-01-22T07:14:11.897Z,8.33
2023-01-22T07:19:15.194Z,8.02
2023-01-22T07:24:18.951Z,7.93
2023-01-22T07:29:23.615Z,7.95
2023-01-22T07:34:27.008Z,7.53
2023-01-22T07:39:30.332Z,7.82
2023-01-22T07:44:37.083Z,8.10
2023-01-22T07:49:40.440Z,7.78
2023-01-22T07:54:43.722Z,7.32
2023-01-22T07:59:48.441Z,7.53
2023-01-22T08:04:51.742Z,7.75
2023-01-22T08:09:55.275Z,7.97
2023-01-22T08:15:00.869Z,8.75
2023-01-22T08:20:05.005Z,8.90
2023-01-22T08:25:08.882Z,8.93
2023-01-22T08:30:15.974Z,9.60
2023-01-22T08:35:21.696Z,8.73
2023-01-22T08:40:25.231Z,9.10
2023-01-22T08:45:30.060Z,9.13
2023-01-22T08:50:33.803Z,9.23
2023-01-22T08:55:37.224Z,9.00
2023-01-22T09:00:42.107Z,8.43
2023-01-22T09:05:45.591Z,8.48
2023-01-22T09:10:49.153Z,9.00
2023-01-22T09:15:58.561Z,8.70
2023-01-22T09:21:02.157Z,8.95
2023-01-22T09:26:06.159Z,7.80
2023-01-22T09:31:13.315Z,7.78
2023-01-22T09:36:18.249Z,7.40
2023-01-22T09:41:26.419Z,7.57
2023-01-22T09:46:35.461Z,7.45
2023-01-22T09:51:39.028Z,7.93
2023-01-22T09:56:45.470Z,7.82
2023-01-22T10:01:54.497Z,8.75
2023-01-22T10:07:00.110Z,9.73
2023-01-22T10:12:13.129Z,10.47
2023-01-22T10:17:22.238Z,7.67
2023-01-22T10:22:27.568Z,7.82
2023-01-22T10:27:39.507Z,7.70
2023-01-22T10:32:44.443Z,7.68
2023-01-22T10:37:51.237Z,7.18
2023-01-22T10:43:06.229Z,7.60
2023-01-22T10:48:16.604Z,7.25
2023-01-22T10:53:24.494Z,7.35
2023-01-22T10:58:32.309Z,6.68
2023-01-22T11:03:39.772Z,7.03
2023-01-22T11:08:48.438Z,7.37
2023-01-22T11:13:56.144Z,6.32
2023-01-22T11:19:06.255Z,6.90
2023-01-22T11:24:16.158Z,7.68
2023-01-22T11:29:39.103Z,7.37
2023-01-22T11:35:04.084Z,6.50
2023-01-22T11:40:20.773Z,6.57
2023-01-22T11:45:36.838Z,5.75
2023-01-22T11:50:48.807Z,6.65
2023-01-22T11:56:07.188Z,6.70
2023-01-22T12:01:20.780Z,6.77
2023-01-22T12:06:51.142Z,7.05
2023-01-22T12:12:06.165Z,7.40
2023-01-22T12:17:25.110Z,7.68
2023-01-22T12:22:37.392Z,7.72
2023-01-22T12:27:49.034Z,8.40
2023-01-22T12:32:56.867Z,12.70
2023-01-22T12:38:12.124Z,7.55
2023-01-22T12:43:18.052Z,8.05
2023-01-22T12:48:29.907Z,7.72
2023-01-22T12:53:35.936Z,8.17
2023-01-22T12:58:41.667Z,7.50
2023-01-22T13:03:45.791Z,5.20
2023-01-22T13:08:51.919Z,5.30
2023-01-22T13:14:13.758Z,3.78
2023-01-22T13:19:22.056Z,6.50
2023-01-22T13:24:28.313Z,3.97
2023-01-22T13:29:34.244Z,3.58
2023-01-22T13:34:38.307Z,3.53
2023-01-22T13:39:43.802Z,5.30
2023-01-22T13:44:51.554Z,5.83
2023-01-22T13:49:55.327Z,3.55
2023-01-22T13:55:05.925Z,4.13
2023-01-22T14:00:24.961Z,4.40
2023-01-22T14:05:31.141Z,4.32
2023-01-22T14:10:36.523Z,4.90
2023-01-22T14:15:41.171Z,7.00
2023-01-22T14:20:46.358Z,8.40
2023-01-22T14:25:52.963Z,11.50
2023-01-22T14:30:56.498Z,7.77
2023-01-22T14:36:00.982Z,7.20
2023-01-22T14:41:07.578Z,8.88
2023-01-22T14:46:11.269Z,8.27
2023-01-22T14:51:14.941Z,9.23
2023-01-22T14:56:19.640Z,9.13
2023-01-22T15:01:25.288Z,9.60
2023-01-22T15:06:29.398Z,10.20
2023-01-22T15:11:34.483Z,10.93
2023-01-22T15:16:39.206Z,10.33
2023-01-22T15:21:43.122Z,11.05
2023-01-22T15:26:48.313Z,10.55
2023-01-22T15:31:54.373Z,11.23
2023-01-22T15:36:58.052Z,16.20
2023-01-22T15:42:03.333Z,16.33
2023-01-22T15:47:07.997Z,12.38
2023-01-22T15:52:11.510Z,10.82
2023-01-22T15:57:16.205Z,11.93
2023-01-22T16:02:19.645Z,13.27
2023-01-22T16:07:23.103Z,13.73
2023-01-22T16:12:27.812Z,13.70
2023-01-22T16:17:31.191Z,14.70
2023-01-22T16:22:34.530Z,17.00
2023-01-22T16:27:39.692Z,15.27
2023-01-22T16:32:46.302Z,17.80
2023-01-22T16:37:50.324Z,17.75
2023-01-22T16:43:00.855Z,16.75
2023-01-22T16:48:04.669Z,14.80
2023-01-22T16:53:08.102Z,14.68
2023-01-22T16:58:12.966Z,15.03
2023-01-22T17:03:16.929Z,14.57
2023-01-22T17:08:20.244Z,15.88
2023-01-22T17:13:25.311Z,15.38
2023-01-22T17:18:28.822Z,14.52
2023-01-22T17:23:32.213Z,14.37
2023-01-22T17:28:39.559Z,16.83
2023-01-22T17:33:43.502Z,14.60
2023-01-22T17:38:46.963Z,18.50
2023-01-22T17:43:53.242Z,15.03
2023-01-22T17:48:57.026Z,16.70
2023-01-22T17:54:03.257Z,17.48
2023-01-22T17:59:08.456Z,15.47
2023-01-22T18:04:13.376Z,16.20
2023-01-22T18:09:17.440Z,16.33
2023-01-22T18:14:22.965Z,20.77
2023-01-22T18:19:26.277Z,16.77
2023-01-22T18:24:31.343Z,14.80
2023-01-22T18:29:36.271Z,17.80
2023-01-22T18:34:39.654Z,18.13
2023-01-22T18:39:42.991Z,18.75
2023-01-22T18:44:47.956Z,18.33
2023-01-22T18:49:51.410Z,19.30
2023-01-22T18:54:54.868Z,18.83
2023-01-22T18:59:59.634Z,20.67
2023-01-22T19:05:03.396Z,19.70
2023-01-22T19:10:08.042Z,22.70
2023-01-22T19:15:13.828Z,24.10
2023-01-22T19:20:17.659Z,24.20
2023-01-22T19:25:21.649Z,23.63
2023-01-22T19:30:26.537Z,23.33
2023-01-22T19:35:29.824Z,23.48
2023-01-22T19:40:33.099Z,25.57
2023-01-22T19:45:38.843Z,23.77
2023-01-22T19:50:42.128Z,23.10
2023-01-22T19:55:45.493Z,23.93
2023-01-22T20:00:50.365Z,20.98
2023-01-22T20:05:53.693Z,22.53
2023-01-22T20:11:00.192Z,18.55
2023-01-22T20:16:06.769Z,16.65
2023-01-22T20:21:12.111Z,20.65
2023-01-22T20:26:16.401Z,19.23
2023-01-22T20:31:23.939Z,19.98
2023-01-22T20:36:29.227Z,20.65
2023-01-22T20:41:34.465Z,22.27
2023-01-22T20:46:41.288Z,19.83
2023-01-22T20:51:44.682Z,21.77
2023-01-22T20:56:48.099Z,22.42
2023-01-22T21:01:54.374Z,22.23
2023-01-22T21:06:58.204Z,19.67
2023-01-22T21:12:01.858Z,16.98
2023-01-22T21:17:06.609Z,14.90
2023-01-22T21:22:09.878Z,17.75
2023-01-22T21:27:13.298Z,20.23
2023-01-22T21:32:19.550Z,16.33
2023-01-22T21:37:24.064Z,15.18
2023-01-22T21:42:46.738Z,13.80
2023-01-22T21:47:52.225Z,11.57
2023-01-22T21:52:55.855Z,10.95
2023-01-22T21:57:59.190Z,11.30
2023-01-22T22:03:03.856Z,11.35
2023-01-22T22:08:07.444Z,10.37
2023-01-22T22:13:10.738Z,10.60
2023-01-22T22:18:15.693Z,10.50
2023-01-22T22:23:18.989Z,10.32
2023-01-22T22:28:22.340Z,10.45
2023-01-22T22:33:27.186Z,11.63
2023-01-22T22:38:30.805Z,11.18
2023-01-22T22:43:35.666Z,11.30
2023-01-22T22:48:40.409Z,11.13
2023-01-22T22:53:44.119Z,11.82
2023-01-22T22:58:48.007Z,12.55
2023-01-22T23:03:53.713Z,14.20
2023-01-22T23:08:58.690Z,13.20
2023-01-22T23:14:02.855Z,15.60
2023-01-22T23:19:10.561Z,14.68
2023-01-22T23:24:14.795Z,13.75
2023-01-22T23:29:24.221Z,14.32
2023-01-22T23:34:29.036Z,13.30
2023-01-22T23:39:32.409Z,14.02
2023-01-22T23:44:35.739Z,13.90
2023-01-22T23:49:40.766Z,14.67
2023-01-22T23:54:44.130Z,15.07
2023-01-22T23:59:50.632Z,14.52
